Terminal Aerodrome Forecast
Issued by NWS

Home | Current Version | Previous Version | Text Only | Print | Product List | Glossary On
Versions: 1 2 3 4 5 6 7 8 9 10 11 12 13 14 15 16 17 18 19 20 21 22 23 24 25 26 27 28 29 30 31 32 33 34 35 36 37 38 39 40 41 42 43 44 45 46 47 48 49 50
000
FTUS45 KBOU 272335
TAFBJC
TAF
KBJC 272335Z 2800/2824 01009KT P6SM SCT050 BKN090
     FM280200 VRB05KT P6SM FEW060 SCT100
     FM280500 25008KT P6SM SCT100 SCT160
     FM281100 32009KT P6SM SCT100 BKN120
     FM282000 03014G22KT P6SM VCSH SCT050 BKN070
     FM282200 03015G25KT P6SM SCT030 OVC050
      TEMPO 2822/2824 -SHRASN BKN025=

USA.gov is the U.S. government's official web portal to all federal, state and local government web resources and services.